sensor_id;sensor_type;location;lat;lon;timestamp;temperature;humidity
69382;DHT22;56560;50.692;12.844;2023-05-08T00:02:00;6.90;78.60
69382;DHT22;56560;50.692;12.844;2023-05-08T00:04:25;6.90;78.30
69382;DHT22;56560;50.692;12.844;2023-05-08T00:06:51;6.90;78.20
69382;DHT22;56560;50.692;12.844;2023-05-08T00:09:18;6.90;78.20
69382;DHT22;56560;50.692;12.844;2023-05-08T00:11:44;6.90;78.10
69382;DHT22;56560;50.692;12.844;2023-05-08T00:14:10;6.90;77.90
69382;DHT22;56560;50.692;12.844;2023-05-08T00:16:35;6.90;78.20
69382;DHT22;56560;50.692;12.844;2023-05-08T00:19:02;6.90;78.20
69382;DHT22;56560;50.692;12.844;2023-05-08T00:21:28;6.90;78.30
69382;DHT22;56560;50.692;12.844;2023-05-08T00:23:54;6.80;78.40
69382;DHT22;56560;50.692;12.844;2023-05-08T00:26:19;6.80;78.50
69382;DHT22;56560;50.692;12.844;2023-05-08T00:28:46;6.80;78.20
69382;DHT22;56560;50.692;12.844;2023-05-08T00:31:12;6.90;78.30
69382;DHT22;56560;50.692;12.844;2023-05-08T00:33:38;6.80;78.40
69382;DHT22;56560;50.692;12.844;2023-05-08T00:36:04;6.70;78.90
69382;DHT22;56560;50.692;12.844;2023-05-08T00:38:31;6.80;78.90
69382;DHT22;56560;50.692;12.844;2023-05-08T00:40:58;6.80;79.00
69382;DHT22;56560;50.692;12.844;2023-05-08T00:43:24;6.70;78.80
69382;DHT22;56560;50.692;12.844;2023-05-08T00:45:53;6.70;79.00
69382;DHT22;56560;50.692;12.844;2023-05-08T00:48:20;6.70;78.90
69382;DHT22;56560;50.692;12.844;2023-05-08T00:50:48;6.70;79.10
69382;DHT22;56560;50.692;12.844;2023-05-08T00:53:14;6.60;79.30
69382;DHT22;56560;50.692;12.844;2023-05-08T00:55:39;6.60;79.20
69382;DHT22;56560;50.692;12.844;2023-05-08T00:58:05;6.60;79.30
69382;DHT22;56560;50.692;12.844;2023-05-08T01:00:31;6.60;79.50
69382;DHT22;56560;50.692;12.844;2023-05-08T01:03:00;6.50;79.50
69382;DHT22;56560;50.692;12.844;2023-05-08T01:05:27;6.50;79.70
69382;DHT22;56560;50.692;12.844;2023-05-08T01:07:52;6.60;79.20
69382;DHT22;56560;50.692;12.844;2023-05-08T01:10:18;6.50;79.20
69382;DHT22;56560;50.692;12.844;2023-05-08T01:15:37;6.40;80.00
69382;DHT22;56560;50.692;12.844;2023-05-08T01:20:48;6.40;79.80
69382;DHT22;56560;50.692;12.844;2023-05-08T01:24:06;6.40;79.90
69382;DHT22;56560;50.692;12.844;2023-05-08T01:32:22;6.30;80.00
69382;DHT22;56560;50.692;12.844;2023-05-08T01:38:02;6.30;80.10
69382;DHT22;56560;50.692;12.844;2023-05-08T01:43:34;6.30;79.80
69382;DHT22;56560;50.692;12.844;2023-05-08T01:46:08;6.20;79.80
69382;DHT22;56560;50.692;12.844;2023-05-08T01:48:43;6.20;79.90
69382;DHT22;56560;50.692;12.844;2023-05-08T01:51:16;6.20;79.90
69382;DHT22;56560;50.692;12.844;2023-05-08T01:53:48;6.20;79.90
69382;DHT22;56560;50.692;12.844;2023-05-08T01:56:17;6.20;79.70
69382;DHT22;56560;50.692;12.844;2023-05-08T01:58:44;6.20;79.60
69382;DHT22;56560;50.692;12.844;2023-05-08T02:01:12;6.20;79.80
69382;DHT22;56560;50.692;12.844;2023-05-08T02:03:40;6.20;79.40
69382;DHT22;56560;50.692;12.844;2023-05-08T02:06:08;6.20;80.10
69382;DHT22;56560;50.692;12.844;2023-05-08T02:08:35;6.10;79.80
69382;DHT22;56560;50.692;12.844;2023-05-08T02:11:03;6.10;79.60
69382;DHT22;56560;50.692;12.844;2023-05-08T02:13:30;6.00;80.00
69382;DHT22;56560;50.692;12.844;2023-05-08T02:15:57;6.00;80.30
69382;DHT22;56560;50.692;12.844;2023-05-08T02:18:25;6.00;80.70
69382;DHT22;56560;50.692;12.844;2023-05-08T02:20:52;6.00;80.30
69382;DHT22;56560;50.692;12.844;2023-05-08T02:23:19;6.00;80.00
69382;DHT22;56560;50.692;12.844;2023-05-08T02:25:47;6.00;80.20
69382;DHT22;56560;50.692;12.844;2023-05-08T02:28:14;5.90;80.10
69382;DHT22;56560;50.692;12.844;2023-05-08T02:30:42;5.90;80.50
69382;DHT22;56560;50.692;12.844;2023-05-08T02:33:10;5.80;80.50
69382;DHT22;56560;50.692;12.844;2023-05-08T02:35:37;5.80;80.40
69382;DHT22;56560;50.692;12.844;2023-05-08T02:38:04;5.80;80.50
69382;DHT22;56560;50.692;12.844;2023-05-08T02:40:36;5.80;80.60
69382;DHT22;56560;50.692;12.844;2023-05-08T02:43:03;5.80;80.70
69382;DHT22;56560;50.692;12.844;2023-05-08T02:45:34;5.70;81.00
69382;DHT22;56560;50.692;12.844;2023-05-08T02:48:13;5.70;80.90
69382;DHT22;56560;50.692;12.844;2023-05-08T02:53:30;5.70;81.00
69382;DHT22;56560;50.692;12.844;2023-05-08T02:56:17;5.60;80.70
69382;DHT22;56560;50.692;12.844;2023-05-08T02:58:54;5.60;80.60
69382;DHT22;56560;50.692;12.844;2023-05-08T03:01:29;5.60;81.00
69382;DHT22;56560;50.692;12.844;2023-05-08T03:04:04;5.50;81.10
69382;DHT22;56560;50.692;12.844;2023-05-08T03:06:39;5.50;81.80
69382;DHT22;56560;50.692;12.844;2023-05-08T03:09:07;5.40;81.50
69382;DHT22;56560;50.692;12.844;2023-05-08T03:11:40;5.40;82.30
69382;DHT22;56560;50.692;12.844;2023-05-08T03:14:10;5.40;82.00
69382;DHT22;56560;50.692;12.844;2023-05-08T03:16:39;5.40;81.90
69382;DHT22;56560;50.692;12.844;2023-05-08T03:19:10;5.40;81.70
69382;DHT22;56560;50.692;12.844;2023-05-08T03:21:40;5.40;81.80
69382;DHT22;56560;50.692;12.844;2023-05-08T03:24:08;5.40;82.00
69382;DHT22;56560;50.692;12.844;2023-05-08T03:26:35;5.50;81.70
69382;DHT22;56560;50.692;12.844;2023-05-08T03:29:01;5.50;81.50
69382;DHT22;56560;50.692;12.844;2023-05-08T03:31:31;5.50;81.30
69382;DHT22;56560;50.692;12.844;2023-05-08T03:33:57;5.50;81.10
69382;DHT22;56560;50.692;12.844;2023-05-08T03:36:25;5.50;81.20
69382;DHT22;56560;50.692;12.844;2023-05-08T03:38:51;5.50;80.80
69382;DHT22;56560;50.692;12.844;2023-05-08T03:41:17;5.60;81.10
69382;DHT22;56560;50.692;12.844;2023-05-08T03:43:43;5.60;80.80
69382;DHT22;56560;50.692;12.844;2023-05-08T03:46:10;5.60;80.60
69382;DHT22;56560;50.692;12.844;2023-05-08T03:48:37;5.60;81.00
69382;DHT22;56560;50.692;12.844;2023-05-08T03:51:04;5.60;80.70
69382;DHT22;56560;50.692;12.844;2023-05-08T03:53:31;5.60;80.40
69382;DHT22;56560;50.692;12.844;2023-05-08T03:55:58;5.70;80.50
69382;DHT22;56560;50.692;12.844;2023-05-08T04:01:37;5.80;80.40
69382;DHT22;56560;50.692;12.844;2023-05-08T04:04:18;5.90;79.60
69382;DHT22;56560;50.692;12.844;2023-05-08T04:06:49;6.00;79.10
69382;DHT22;56560;50.692;12.844;2023-05-08T04:12:21;6.10;78.30
69382;DHT22;56560;50.692;12.844;2023-05-08T04:14:52;6.20;78.20
69382;DHT22;56560;50.692;12.844;2023-05-08T04:17:42;6.30;78.70
69382;DHT22;56560;50.692;12.844;2023-05-08T04:20:14;6.30;77.90
69382;DHT22;56560;50.692;12.844;2023-05-08T04:22:41;6.40;77.90
69382;DHT22;56560;50.692;12.844;2023-05-08T04:25:07;6.50;77.90
69382;DHT22;56560;50.692;12.844;2023-05-08T04:27:34;6.60;77.20
69382;DHT22;56560;50.692;12.844;2023-05-08T04:30:01;6.60;77.30
69382;DHT22;56560;50.692;12.844;2023-05-08T04:32:28;6.70;75.50
69382;DHT22;56560;50.692;12.844;2023-05-08T04:34:54;6.80;76.10
69382;DHT22;56560;50.692;12.844;2023-05-08T04:37:29;6.90;74.60
69382;DHT22;56560;50.692;12.844;2023-05-08T04:39:58;7.10;73.90
69382;DHT22;56560;50.692;12.844;2023-05-08T04:42:24;7.10;73.70
69382;DHT22;56560;50.692;12.844;2023-05-08T04:44:51;7.20;72.60
69382;DHT22;56560;50.692;12.844;2023-05-08T04:47:17;7.30;73.30
69382;DHT22;56560;50.692;12.844;2023-05-08T04:49:43;7.40;72.70
69382;DHT22;56560;50.692;12.844;2023-05-08T04:52:08;7.50;72.00
69382;DHT22;56560;50.692;12.844;2023-05-08T04:54:34;7.70;71.60
69382;DHT22;56560;50.692;12.844;2023-05-08T04:57:00;7.80;71.50
69382;DHT22;56560;50.692;12.844;2023-05-08T04:59:26;7.80;69.90
69382;DHT22;56560;50.692;12.844;2023-05-08T05:01:52;7.90;70.30
69382;DHT22;56560;50.692;12.844;2023-05-08T05:04:17;8.00;70.10
69382;DHT22;56560;50.692;12.844;2023-05-08T05:06:43;8.10;69.20
69382;DHT22;56560;50.692;12.844;2023-05-08T05:09:09;8.30;69.00
69382;DHT22;56560;50.692;12.844;2023-05-08T05:11:36;8.30;68.60
69382;DHT22;56560;50.692;12.844;2023-05-08T05:14:01;8.40;68.50
69382;DHT22;56560;50.692;12.844;2023-05-08T05:16:27;8.50;68.10
69382;DHT22;56560;50.692;12.844;2023-05-08T05:18:53;8.70;67.30
69382;DHT22;56560;50.692;12.844;2023-05-08T05:21:18;8.80;67.00
69382;DHT22;56560;50.692;12.844;2023-05-08T05:23:47;8.90;66.50
69382;DHT22;56560;50.692;12.844;2023-05-08T05:26:13;9.00;65.80
69382;DHT22;56560;50.692;12.844;2023-05-08T05:28:39;9.10;65.00
69382;DHT22;56560;50.692;12.844;2023-05-08T05:31:08;9.20;64.80
69382;DHT22;56560;50.692;12.844;2023-05-08T05:33:34;9.40;64.10
69382;DHT22;56560;50.692;12.844;2023-05-08T05:36:00;9.50;63.70
69382;DHT22;56560;50.692;12.844;2023-05-08T05:38:25;9.80;62.70
69382;DHT22;56560;50.692;12.844;2023-05-08T05:40:51;9.90;62.30
69382;DHT22;56560;50.692;12.844;2023-05-08T05:43:17;10.00;62.10
69382;DHT22;56560;50.692;12.844;2023-05-08T05:45:42;10.10;61.30
69382;DHT22;56560;50.692;12.844;2023-05-08T05:48:08;10.00;62.10
69382;DHT22;56560;50.692;12.844;2023-05-08T05:50:36;10.10;62.20
69382;DHT22;56560;50.692;12.844;2023-05-08T05:53:05;10.20;61.60
69382;DHT22;56560;50.692;12.844;2023-05-08T05:55:34;10.30;60.90
69382;DHT22;56560;50.692;12.844;2023-05-08T05:58:00;10.40;60.80
69382;DHT22;56560;50.692;12.844;2023-05-08T06:00:26;10.60;60.50
69382;DHT22;56560;50.692;12.844;2023-05-08T06:02:51;10.70;60.80
69382;DHT22;56560;50.692;12.844;2023-05-08T06:05:17;10.70;59.90
69382;DHT22;56560;50.692;12.844;2023-05-08T06:07:47;10.80;59.30
69382;DHT22;56560;50.692;12.844;2023-05-08T06:10:13;10.80;59.30
69382;DHT22;56560;50.692;12.844;2023-05-08T06:12:38;10.80;60.20
69382;DHT22;56560;50.692;12.844;2023-05-08T06:15:04;10.80;58.30
69382;DHT22;56560;50.692;12.844;2023-05-08T06:17:30;10.80;57.50
69382;DHT22;56560;50.692;12.844;2023-05-08T06:19:56;10.80;58.50
69382;DHT22;56560;50.692;12.844;2023-05-08T06:22:22;10.80;59.20
69382;DHT22;56560;50.692;12.844;2023-05-08T06:24:49;11.00;58.70
69382;DHT22;56560;50.692;12.844;2023-05-08T06:27:21;11.00;57.10
69382;DHT22;56560;50.692;12.844;2023-05-08T06:29:50;10.90;56.90
69382;DHT22;56560;50.692;12.844;2023-05-08T06:32:17;10.70;58.30
69382;DHT22;56560;50.692;12.844;2023-05-08T06:34:43;10.90;59.10
69382;DHT22;56560;50.692;12.844;2023-05-08T06:37:09;11.10;58.90
69382;DHT22;56560;50.692;12.844;2023-05-08T06:39:34;11.20;58.30
69382;DHT22;56560;50.692;12.844;2023-05-08T06:42:00;11.30;57.50
69382;DHT22;56560;50.692;12.844;2023-05-08T06:44:26;11.40;58.10
69382;DHT22;56560;50.692;12.844;2023-05-08T06:46:51;11.50;57.70
69382;DHT22;56560;50.692;12.844;2023-05-08T06:49:17;11.50;56.80
69382;DHT22;56560;50.692;12.844;2023-05-08T06:51:42;11.60;57.20
69382;DHT22;56560;50.692;12.844;2023-05-08T06:54:08;11.70;57.60
69382;DHT22;56560;50.692;12.844;2023-05-08T06:56:34;11.90;55.90
69382;DHT22;56560;50.692;12.844;2023-05-08T06:59:00;11.70;55.40
69382;DHT22;56560;50.692;12.844;2023-05-08T07:01:26;11.80;55.10
69382;DHT22;56560;50.692;12.844;2023-05-08T07:03:52;11.70;55.50
69382;DHT22;56560;50.692;12.844;2023-05-08T07:06:18;11.80;55.20
69382;DHT22;56560;50.692;12.844;2023-05-08T07:08:43;11.90;55.70
69382;DHT22;56560;50.692;12.844;2023-05-08T07:11:09;12.00;54.10
69382;DHT22;56560;50.692;12.844;2023-05-08T07:13:35;11.70;54.00
69382;DHT22;56560;50.692;12.844;2023-05-08T07:16:01;11.60;54.80
69382;DHT22;56560;50.692;12.844;2023-05-08T07:18:27;11.80;56.10
69382;DHT22;56560;50.692;12.844;2023-05-08T07:20:53;12.10;54.80
69382;DHT22;56560;50.692;12.844;2023-05-08T07:23:19;12.10;54.90
69382;DHT22;56560;50.692;12.844;2023-05-08T07:25:44;12.20;53.60
69382;DHT22;56560;50.692;12.844;2023-05-08T07:28:10;12.30;54.00
69382;DHT22;56560;50.692;12.844;2023-05-08T07:30:36;12.40;52.20
69382;DHT22;56560;50.692;12.844;2023-05-08T07:33:01;12.40;53.20
69382;DHT22;56560;50.692;12.844;2023-05-08T07:35:28;12.40;52.80
69382;DHT22;56560;50.692;12.844;2023-05-08T07:37:54;12.40;53.10
69382;DHT22;56560;50.692;12.844;2023-05-08T07:40:19;12.60;53.30
69382;DHT22;56560;50.692;12.844;2023-05-08T07:42:45;12.80;52.30
69382;DHT22;56560;50.692;12.844;2023-05-08T07:45:11;13.00;51.20
69382;DHT22;56560;50.692;12.844;2023-05-08T07:47:38;13.10;50.00
69382;DHT22;56560;50.692;12.844;2023-05-08T07:50:12;12.90;49.60
69382;DHT22;56560;50.692;12.844;2023-05-08T07:52:38;12.90;49.60
69382;DHT22;56560;50.692;12.844;2023-05-08T07:55:04;13.00;49.40
69382;DHT22;56560;50.692;12.844;2023-05-08T07:57:44;13.20;50.30
69382;DHT22;56560;50.692;12.844;2023-05-08T08:00:11;13.30;49.40
69382;DHT22;56560;50.692;12.844;2023-05-08T08:02:38;13.30;48.00
69382;DHT22;56560;50.692;12.844;2023-05-08T08:05:04;13.20;48.80
69382;DHT22;56560;50.692;12.844;2023-05-08T08:07:30;13.30;49.00
69382;DHT22;56560;50.692;12.844;2023-05-08T08:10:00;13.60;49.30
69382;DHT22;56560;50.692;12.844;2023-05-08T08:12:27;13.90;48.10
69382;DHT22;56560;50.692;12.844;2023-05-08T08:14:53;14.20;47.90
69382;DHT22;56560;50.692;12.844;2023-05-08T08:17:19;14.30;47.80
69382;DHT22;56560;50.692;12.844;2023-05-08T08:19:44;14.20;46.60
69382;DHT22;56560;50.692;12.844;2023-05-08T08:22:10;14.10;47.30
69382;DHT22;56560;50.692;12.844;2023-05-08T08:24:36;13.90;47.40
69382;DHT22;56560;50.692;12.844;2023-05-08T08:27:01;14.20;46.90
69382;DHT22;56560;50.692;12.844;2023-05-08T08:29:29;14.20;45.70
69382;DHT22;56560;50.692;12.844;2023-05-08T08:31:54;14.20;45.40
69382;DHT22;56560;50.692;12.844;2023-05-08T08:37:47;14.20;46.50
69382;DHT22;56560;50.692;12.844;2023-05-08T08:40:30;14.50;47.20
69382;DHT22;56560;50.692;12.844;2023-05-08T08:43:27;14.90;45.40
69382;DHT22;56560;50.692;12.844;2023-05-08T08:46:10;15.20;45.30
69382;DHT22;56560;50.692;12.844;2023-05-08T08:48:50;15.50;44.50
69382;DHT22;56560;50.692;12.844;2023-05-08T08:51:27;15.80;43.40
69382;DHT22;56560;50.692;12.844;2023-05-08T08:54:12;16.10;43.20
69382;DHT22;56560;50.692;12.844;2023-05-08T08:56:40;15.80;43.20
69382;DHT22;56560;50.692;12.844;2023-05-08T08:59:10;15.90;43.60
69382;DHT22;56560;50.692;12.844;2023-05-08T09:01:43;16.10;43.00
69382;DHT22;56560;50.692;12.844;2023-05-08T09:04:09;16.10;42.60
69382;DHT22;56560;50.692;12.844;2023-05-08T09:06:36;16.40;42.30
69382;DHT22;56560;50.692;12.844;2023-05-08T09:09:03;16.80;42.40
69382;DHT22;56560;50.692;12.844;2023-05-08T09:11:29;16.90;40.50
69382;DHT22;56560;50.692;12.844;2023-05-08T09:13:55;17.00;41.90
69382;DHT22;56560;50.692;12.844;2023-05-08T09:16:21;17.50;41.70
69382;DHT22;56560;50.692;12.844;2023-05-08T09:18:48;17.70;39.20
69382;DHT22;56560;50.692;12.844;2023-05-08T09:21:19;18.00;38.90
69382;DHT22;56560;50.692;12.844;2023-05-08T09:24:01;18.10;39.50
69382;DHT22;56560;50.692;12.844;2023-05-08T09:26:33;18.30;38.00
69382;DHT22;56560;50.692;12.844;2023-05-08T09:31:43;18.70;35.80
69382;DHT22;56560;50.692;12.844;2023-05-08T09:34:12;18.60;35.60
69382;DHT22;56560;50.692;12.844;2023-05-08T09:36:46;18.40;35.50
69382;DHT22;56560;50.692;12.844;2023-05-08T09:39:24;18.30;36.10
69382;DHT22;56560;50.692;12.844;2023-05-08T09:42:04;18.20;35.50
69382;DHT22;56560;50.692;12.844;2023-05-08T09:44:50;18.30;36.60
69382;DHT22;56560;50.692;12.844;2023-05-08T09:47:18;18.80;36.50
69382;DHT22;56560;50.692;12.844;2023-05-08T09:50:07;18.60;35.80
69382;DHT22;56560;50.692;12.844;2023-05-08T09:52:35;18.50;36.90
69382;DHT22;56560;50.692;12.844;2023-05-08T09:55:03;18.70;36.40
69382;DHT22;56560;50.692;12.844;2023-05-08T09:57:30;18.50;37.00
69382;DHT22;56560;50.692;12.844;2023-05-08T10:00:10;18.60;36.50
69382;DHT22;56560;50.692;12.844;2023-05-08T10:02:39;18.50;36.70
69382;DHT22;56560;50.692;12.844;2023-05-08T10:07:48;18.90;37.10
69382;DHT22;56560;50.692;12.844;2023-05-08T10:10:13;19.10;36.60
69382;DHT22;56560;50.692;12.844;2023-05-08T10:12:39;19.60;36.60
69382;DHT22;56560;50.692;12.844;2023-05-08T10:15:08;19.80;33.90
69382;DHT22;56560;50.692;12.844;2023-05-08T10:18:06;19.70;34.60
69382;DHT22;56560;50.692;12.844;2023-05-08T10:20:42;19.60;35.20
69382;DHT22;56560;50.692;12.844;2023-05-08T10:23:15;19.50;34.80
69382;DHT22;56560;50.692;12.844;2023-05-08T10:25:47;19.60;35.20
69382;DHT22;56560;50.692;12.844;2023-05-08T10:28:36;19.70;36.30
69382;DHT22;56560;50.692;12.844;2023-05-08T10:31:06;20.10;34.70
69382;DHT22;56560;50.692;12.844;2023-05-08T10:33:34;20.10;34.60
69382;DHT22;56560;50.692;12.844;2023-05-08T10:36:04;20.50;34.80
69382;DHT22;56560;50.692;12.844;2023-05-08T10:38:30;20.70;34.00
69382;DHT22;56560;50.692;12.844;2023-05-08T10:40:59;20.60;34.50
69382;DHT22;56560;50.692;12.844;2023-05-08T10:43:28;20.90;34.00
69382;DHT22;56560;50.692;12.844;2023-05-08T10:45:55;21.20;33.30
69382;DHT22;56560;50.692;12.844;2023-05-08T10:55:50;21.20;33.90
69382;DHT22;56560;50.692;12.844;2023-05-08T11:03:22;20.90;32.40
69382;DHT22;56560;50.692;12.844;2023-05-08T11:05:50;20.90;32.90
69382;DHT22;56560;50.692;12.844;2023-05-08T11:08:18;21.10;32.40
69382;DHT22;56560;50.692;12.844;2023-05-08T11:13:37;21.30;32.20
69382;DHT22;56560;50.692;12.844;2023-05-08T11:16:04;21.00;32.80
69382;DHT22;56560;50.692;12.844;2023-05-08T11:18:35;21.30;33.70
69382;DHT22;56560;50.692;12.844;2023-05-08T11:21:03;21.40;32.00
69382;DHT22;56560;50.692;12.844;2023-05-08T11:23:30;21.10;32.20
69382;DHT22;56560;50.692;12.844;2023-05-08T11:28:36;21.20;31.00
69382;DHT22;56560;50.692;12.844;2023-05-08T11:31:07;21.30;30.70
69382;DHT22;56560;50.692;12.844;2023-05-08T11:33:36;21.80;31.60
69382;DHT22;56560;50.692;12.844;2023-05-08T11:36:19;22.00;31.10
69382;DHT22;56560;50.692;12.844;2023-05-08T11:39:07;22.40;30.50
69382;DHT22;56560;50.692;12.844;2023-05-08T11:41:33;22.60;30.30
69382;DHT22;56560;50.692;12.844;2023-05-08T11:46:49;23.00;29.00
69382;DHT22;56560;50.692;12.844;2023-05-08T11:49:23;23.30;28.90
69382;DHT22;56560;50.692;12.844;2023-05-08T11:51:51;23.40;27.50
69382;DHT22;56560;50.692;12.844;2023-05-08T11:54:21;23.60;27.90
69382;DHT22;56560;50.692;12.844;2023-05-08T11:56:48;23.90;27.90
69382;DHT22;56560;50.692;12.844;2023-05-08T11:59:17;24.20;27.60
69382;DHT22;56560;50.692;12.844;2023-05-08T12:01:52;24.00;26.40
69382;DHT22;56560;50.692;12.844;2023-05-08T12:04:17;24.30;26.50
69382;DHT22;56560;50.692;12.844;2023-05-08T12:06:44;25.00;26.10
69382;DHT22;56560;50.692;12.844;2023-05-08T12:09:17;25.80;26.70
69382;DHT22;56560;50.692;12.844;2023-05-08T12:11:43;27.10;25.20
69382;DHT22;56560;50.692;12.844;2023-05-08T12:14:16;27.90;24.40
69382;DHT22;56560;50.692;12.844;2023-05-08T12:16:42;28.00;23.90
69382;DHT22;56560;50.692;12.844;2023-05-08T12:19:12;27.40;25.20
69382;DHT22;56560;50.692;12.844;2023-05-08T12:21:38;27.40;24.40
69382;DHT22;56560;50.692;12.844;2023-05-08T12:24:12;27.80;25.00
69382;DHT22;56560;50.692;12.844;2023-05-08T12:26:41;27.60;23.90
69382;DHT22;56560;50.692;12.844;2023-05-08T12:29:09;27.80;24.30
69382;DHT22;56560;50.692;12.844;2023-05-08T12:31:38;28.00;25.10
69382;DHT22;56560;50.692;12.844;2023-05-08T12:34:05;28.00;24.80
69382;DHT22;56560;50.692;12.844;2023-05-08T12:36:36;28.10;24.70
69382;DHT22;56560;50.692;12.844;2023-05-08T12:39:13;28.90;24.50
69382;DHT22;56560;50.692;12.844;2023-05-08T12:41:49;29.40;24.40
69382;DHT22;56560;50.692;12.844;2023-05-08T12:44:19;29.30;24.40
69382;DHT22;56560;50.692;12.844;2023-05-08T12:46:49;29.30;25.10
69382;DHT22;56560;50.692;12.844;2023-05-08T12:49:28;28.90;25.00
69382;DHT22;56560;50.692;12.844;2023-05-08T12:52:05;29.10;25.00
69382;DHT22;56560;50.692;12.844;2023-05-08T12:54:45;29.40;24.50
69382;DHT22;56560;50.692;12.844;2023-05-08T12:57:13;28.90;24.50
69382;DHT22;56560;50.692;12.844;2023-05-08T12:59:40;29.10;25.10
69382;DHT22;56560;50.692;12.844;2023-05-08T13:02:20;29.60;24.30
69382;DHT22;56560;50.692;12.844;2023-05-08T13:04:53;29.60;23.40
69382;DHT22;56560;50.692;12.844;2023-05-08T13:07:20;29.20;23.80
69382;DHT22;56560;50.692;12.844;2023-05-08T13:10:00;27.90;23.60
69382;DHT22;56560;50.692;12.844;2023-05-08T13:12:29;27.70;23.60
69382;DHT22;56560;50.692;12.844;2023-05-08T13:14:55;28.50;24.90
69382;DHT22;56560;50.692;12.844;2023-05-08T13:17:20;29.40;23.70
69382;DHT22;56560;50.692;12.844;2023-05-08T13:19:46;29.60;23.40
69382;DHT22;56560;50.692;12.844;2023-05-08T13:22:12;30.00;23.70
69382;DHT22;56560;50.692;12.844;2023-05-08T13:24:37;30.70;23.80
69382;DHT22;56560;50.692;12.844;2023-05-08T13:27:03;30.80;23.20
69382;DHT22;56560;50.692;12.844;2023-05-08T13:29:28;30.70;23.30
69382;DHT22;56560;50.692;12.844;2023-05-08T13:31:54;30.70;22.50
69382;DHT22;56560;50.692;12.844;2023-05-08T13:34:19;30.60;23.00
69382;DHT22;56560;50.692;12.844;2023-05-08T13:36:45;30.90;22.90
69382;DHT22;56560;50.692;12.844;2023-05-08T13:39:11;31.00;22.90
69382;DHT22;56560;50.692;12.844;2023-05-08T13:41:36;31.20;23.10
69382;DHT22;56560;50.692;12.844;2023-05-08T13:44:02;31.20;23.60
69382;DHT22;56560;50.692;12.844;2023-05-08T13:46:27;31.60;23.30
69382;DHT22;56560;50.692;12.844;2023-05-08T13:48:53;31.80;23.00
69382;DHT22;56560;50.692;12.844;2023-05-08T13:51:18;31.60;22.70
69382;DHT22;56560;50.692;12.844;2023-05-08T13:53:44;31.20;23.50
69382;DHT22;56560;50.692;12.844;2023-05-08T13:56:10;30.50;22.60
69382;DHT22;56560;50.692;12.844;2023-05-08T13:58:35;30.30;24.00
69382;DHT22;56560;50.692;12.844;2023-05-08T14:01:01;29.80;23.90
69382;DHT22;56560;50.692;12.844;2023-05-08T14:03:27;30.10;23.40
69382;DHT22;56560;50.692;12.844;2023-05-08T14:05:53;30.60;23.70
69382;DHT22;56560;50.692;12.844;2023-05-08T14:08:18;31.30;24.00
69382;DHT22;56560;50.692;12.844;2023-05-08T14:10:44;32.20;23.00
69382;DHT22;56560;50.692;12.844;2023-05-08T14:13:09;32.30;22.30
69382;DHT22;56560;50.692;12.844;2023-05-08T14:15:36;32.20;22.70
69382;DHT22;56560;50.692;12.844;2023-05-08T14:18:02;31.80;22.50
69382;DHT22;56560;50.692;12.844;2023-05-08T14:20:27;31.10;22.80
69382;DHT22;56560;50.692;12.844;2023-05-08T14:22:53;30.60;23.40
69382;DHT22;56560;50.692;12.844;2023-05-08T14:25:19;29.80;23.70
69382;DHT22;56560;50.692;12.844;2023-05-08T14:27:44;29.50;24.60
69382;DHT22;56560;50.692;12.844;2023-05-08T14:30:10;29.90;24.10
69382;DHT22;56560;50.692;12.844;2023-05-08T14:32:36;30.10;24.10
69382;DHT22;56560;50.692;12.844;2023-05-08T14:35:01;30.90;24.30
69382;DHT22;56560;50.692;12.844;2023-05-08T14:37:27;31.80;23.80
69382;DHT22;56560;50.692;12.844;2023-05-08T14:39:53;31.60;23.10
69382;DHT22;56560;50.692;12.844;2023-05-08T14:42:20;31.40;23.00
69382;DHT22;56560;50.692;12.844;2023-05-08T14:44:46;31.40;22.40
69382;DHT22;56560;50.692;12.844;2023-05-08T14:47:12;30.10;23.10
69382;DHT22;56560;50.692;12.844;2023-05-08T14:49:37;29.30;24.20
69382;DHT22;56560;50.692;12.844;2023-05-08T14:52:03;29.00;24.50
69382;DHT22;56560;50.692;12.844;2023-05-08T14:54:29;28.80;24.80
69382;DHT22;56560;50.692;12.844;2023-05-08T14:56:54;28.30;25.00
69382;DHT22;56560;50.692;12.844;2023-05-08T14:59:20;27.90;25.40
69382;DHT22;56560;50.692;12.844;2023-05-08T15:01:46;27.60;25.80
69382;DHT22;56560;50.692;12.844;2023-05-08T15:04:11;27.10;26.50
69382;DHT22;56560;50.692;12.844;2023-05-08T15:06:37;26.80;26.20
69382;DHT22;56560;50.692;12.844;2023-05-08T15:09:05;27.40;26.30
69382;DHT22;56560;50.692;12.844;2023-05-08T15:11:32;28.20;26.00
69382;DHT22;56560;50.692;12.844;2023-05-08T15:13:58;29.40;25.00
69382;DHT22;56560;50.692;12.844;2023-05-08T15:16:26;29.40;24.40
69382;DHT22;56560;50.692;12.844;2023-05-08T15:18:51;28.70;24.90
69382;DHT22;56560;50.692;12.844;2023-05-08T15:21:17;28.30;25.20
69382;DHT22;56560;50.692;12.844;2023-05-08T15:23:45;28.50;24.90
69382;DHT22;56560;50.692;12.844;2023-05-08T15:26:10;28.50;24.60
69382;DHT22;56560;50.692;12.844;2023-05-08T15:28:36;29.00;24.50
69382;DHT22;56560;50.692;12.844;2023-05-08T15:31:04;29.80;24.30
69382;DHT22;56560;50.692;12.844;2023-05-08T15:33:30;30.10;22.90
69382;DHT22;56560;50.692;12.844;2023-05-08T15:35:56;29.20;23.40
69382;DHT22;56560;50.692;12.844;2023-05-08T15:38:23;28.40;24.40
69382;DHT22;56560;50.692;12.844;2023-05-08T15:40:51;27.30;24.90
69382;DHT22;56560;50.692;12.844;2023-05-08T15:43:17;26.80;25.80
69382;DHT22;56560;50.692;12.844;2023-05-08T15:45:42;26.50;26.00
69382;DHT22;56560;50.692;12.844;2023-05-08T15:48:08;26.30;26.10
69382;DHT22;56560;50.692;12.844;2023-05-08T15:50:33;25.90;25.70
69382;DHT22;56560;50.692;12.844;2023-05-08T15:52:59;25.50;25.70
69382;DHT22;56560;50.692;12.844;2023-05-08T15:55:25;25.80;25.90
69382;DHT22;56560;50.692;12.844;2023-05-08T15:57:51;25.90;25.40
69382;DHT22;56560;50.692;12.844;2023-05-08T16:00:22;26.80;25.10
69382;DHT22;56560;50.692;12.844;2023-05-08T16:02:48;27.90;24.10
69382;DHT22;56560;50.692;12.844;2023-05-08T16:05:13;28.70;24.20
69382;DHT22;56560;50.692;12.844;2023-05-08T16:07:39;28.60;24.10
69382;DHT22;56560;50.692;12.844;2023-05-08T16:10:05;28.40;24.50
69382;DHT22;56560;50.692;12.844;2023-05-08T16:12:31;28.60;24.80
69382;DHT22;56560;50.692;12.844;2023-05-08T16:14:57;27.70;25.50
69382;DHT22;56560;50.692;12.844;2023-05-08T16:17:23;26.20;26.80
69382;DHT22;56560;50.692;12.844;2023-05-08T16:19:48;25.10;27.60
69382;DHT22;56560;50.692;12.844;2023-05-08T16:22:14;24.00;28.40
69382;DHT22;56560;50.692;12.844;2023-05-08T16:24:40;22.90;29.30